Barneveld, Netherlands
Current Conditions -  °F | °C
As of 1:25 PM on Thursday 29 Jan 2015 (Local Time) from EHDL Reporting Station
Broken Clouds Broken Clouds  
Wind Chill: 29°   Ceiling: 3100
Heat Index: 37°   Visibility: 6mi
Dew Point: 34°   Wind: 13mph
Humidity: 87%   Direction: 210°SSW
Pressure: 29.03"   Gusts: NA
Location:  52.14°N, 5.58°E
Report Text: EHDL 291225Z AUTO 21011KT 9999 FEW015TCU SCT027 BKN031 03/01 Q0983 BLU
Loading
Personal Weather Stations






























Interactive Weather Map New forecast layout! Learn more

10-Day Weather Forecast

Advertisements
Track Severe Weather on mobile